Fairfield, Illinois
Current Conditions -  °F | °C
As of 11:15 AM on Friday 31 Oct 2014 (Local Time) from KFWC Reporting Station
Scattered Clouds Scattered Clouds  
Wind Chill: 38°   Ceiling: Unl
Heat Index: 45°   Visibility: 10mi
Dew Point: 28°   Wind: 17mph
Humidity: 50%   Direction: 330°NNW
Pressure: 30.16"   Gusts: 24mph
Location:  38.38°N, 88.36°W
Report Text: KFWC 311615Z AUTO 33015G21KT 10SM SCT035 SCT042 07/M02 A3016 RMK AO1 T00741025
Loading
Personal Weather Stations






























Interactive Weather Map
Tropical Storm Tracking
New forecast layout! Learn more

10-Day Weather Forecast

Advertisements
Track Severe Weather on mobile